sensor_id;sensor_type;location;lat;lon;timestamp;P1;durP1;ratioP1;P2;durP2;ratioP2
4806;SDS011;2417;52.482;13.432;2023-08-06T00:01:46;16.80;;;11.57;;
4806;SDS011;2417;52.482;13.432;2023-08-06T00:04:14;22.53;;;12.77;;
4806;SDS011;2417;52.482;13.432;2023-08-06T00:06:42;18.87;;;12.93;;
4806;SDS011;2417;52.482;13.432;2023-08-06T00:09:10;18.83;;;12.47;;
4806;SDS011;2417;52.482;13.432;2023-08-06T00:11:38;19.50;;;12.40;;
4806;SDS011;2417;52.482;13.432;2023-08-06T00:14:08;26.80;;;16.20;;
4806;SDS011;2417;52.482;13.432;2023-08-06T00:16:37;16.40;;;11.87;;
4806;SDS011;2417;52.482;13.432;2023-08-06T00:19:05;20.47;;;11.70;;
4806;SDS011;2417;52.482;13.432;2023-08-06T00:21:33;22.90;;;15.37;;
4806;SDS011;2417;52.482;13.432;2023-08-06T00:24:00;20.00;;;12.93;;
4806;SDS011;2417;52.482;13.432;2023-08-06T00:26:28;21.20;;;13.57;;
4806;SDS011;2417;52.482;13.432;2023-08-06T00:28:56;19.70;;;14.30;;
4806;SDS011;2417;52.482;13.432;2023-08-06T00:31:25;28.90;;;19.93;;
4806;SDS011;2417;52.482;13.432;2023-08-06T00:33:54;24.50;;;16.67;;
4806;SDS011;2417;52.482;13.432;2023-08-06T00:36:22;22.00;;;14.90;;
4806;SDS011;2417;52.482;13.432;2023-08-06T00:38:50;21.80;;;15.00;;
4806;SDS011;2417;52.482;13.432;2023-08-06T00:41:19;20.70;;;13.40;;
4806;SDS011;2417;52.482;13.432;2023-08-06T00:43:46;18.40;;;12.47;;
4806;SDS011;2417;52.482;13.432;2023-08-06T00:46:15;17.57;;;13.23;;
4806;SDS011;2417;52.482;13.432;2023-08-06T00:48:42;18.07;;;13.27;;
4806;SDS011;2417;52.482;13.432;2023-08-06T00:51:12;20.87;;;14.40;;
4806;SDS011;2417;52.482;13.432;2023-08-06T00:53:40;19.10;;;12.50;;
4806;SDS011;2417;52.482;13.432;2023-08-06T00:56:09;20.23;;;13.03;;
4806;SDS011;2417;52.482;13.432;2023-08-06T00:58:37;17.23;;;13.23;;
4806;SDS011;2417;52.482;13.432;2023-08-06T01:01:05;17.40;;;12.93;;
4806;SDS011;2417;52.482;13.432;2023-08-06T01:03:34;22.90;;;16.93;;
4806;SDS011;2417;52.482;13.432;2023-08-06T01:06:02;19.57;;;13.53;;
4806;SDS011;2417;52.482;13.432;2023-08-06T01:08:33;21.60;;;14.70;;
4806;SDS011;2417;52.482;13.432;2023-08-06T01:11:10;18.60;;;13.13;;
4806;SDS011;2417;52.482;13.432;2023-08-06T01:13:42;18.80;;;13.30;;
4806;SDS011;2417;52.482;13.432;2023-08-06T01:16:14;20.03;;;13.30;;
4806;SDS011;2417;52.482;13.432;2023-08-06T01:18:43;17.90;;;12.80;;
4806;SDS011;2417;52.482;13.432;2023-08-06T01:21:14;22.70;;;14.40;;
4806;SDS011;2417;52.482;13.432;2023-08-06T01:23:42;20.53;;;13.13;;
4806;SDS011;2417;52.482;13.432;2023-08-06T01:26:11;20.77;;;13.70;;
4806;SDS011;2417;52.482;13.432;2023-08-06T01:28:40;16.47;;;12.33;;
4806;SDS011;2417;52.482;13.432;2023-08-06T01:31:10;17.57;;;13.00;;
4806;SDS011;2417;52.482;13.432;2023-08-06T01:33:43;19.63;;;12.60;;
4806;SDS011;2417;52.482;13.432;2023-08-06T01:36:11;17.83;;;13.57;;
4806;SDS011;2417;52.482;13.432;2023-08-06T01:38:41;20.70;;;12.87;;
4806;SDS011;2417;52.482;13.432;2023-08-06T01:41:09;17.53;;;12.33;;
4806;SDS011;2417;52.482;13.432;2023-08-06T01:43:37;18.57;;;12.47;;
4806;SDS011;2417;52.482;13.432;2023-08-06T01:46:05;19.33;;;13.60;;
4806;SDS011;2417;52.482;13.432;2023-08-06T01:48:33;17.27;;;13.07;;
4806;SDS011;2417;52.482;13.432;2023-08-06T01:51:03;21.03;;;15.00;;
4806;SDS011;2417;52.482;13.432;2023-08-06T01:53:31;20.60;;;14.30;;
4806;SDS011;2417;52.482;13.432;2023-08-06T01:56:00;21.03;;;13.50;;
4806;SDS011;2417;52.482;13.432;2023-08-06T01:58:29;24.70;;;14.37;;
4806;SDS011;2417;52.482;13.432;2023-08-06T02:00:57;21.57;;;14.23;;
4806;SDS011;2417;52.482;13.432;2023-08-06T02:03:25;27.53;;;16.27;;
4806;SDS011;2417;52.482;13.432;2023-08-06T02:05:53;24.20;;;15.73;;
4806;SDS011;2417;52.482;13.432;2023-08-06T02:08:21;23.03;;;15.30;;
4806;SDS011;2417;52.482;13.432;2023-08-06T02:10:49;25.07;;;16.57;;
4806;SDS011;2417;52.482;13.432;2023-08-06T02:13:18;23.53;;;16.40;;
4806;SDS011;2417;52.482;13.432;2023-08-06T02:15:47;24.17;;;16.00;;
4806;SDS011;2417;52.482;13.432;2023-08-06T02:18:15;26.37;;;16.70;;
4806;SDS011;2417;52.482;13.432;2023-08-06T02:20:43;23.60;;;16.40;;
4806;SDS011;2417;52.482;13.432;2023-08-06T02:23:11;23.20;;;16.27;;
4806;SDS011;2417;52.482;13.432;2023-08-06T02:25:39;24.70;;;17.03;;
4806;SDS011;2417;52.482;13.432;2023-08-06T02:28:06;27.80;;;16.13;;
4806;SDS011;2417;52.482;13.432;2023-08-06T02:30:36;22.33;;;16.33;;
4806;SDS011;2417;52.482;13.432;2023-08-06T02:33:06;24.33;;;17.03;;
4806;SDS011;2417;52.482;13.432;2023-08-06T02:35:34;24.30;;;16.33;;
4806;SDS011;2417;52.482;13.432;2023-08-06T02:38:02;27.50;;;17.10;;
4806;SDS011;2417;52.482;13.432;2023-08-06T02:40:30;27.47;;;17.37;;
4806;SDS011;2417;52.482;13.432;2023-08-06T02:42:58;25.07;;;16.90;;
4806;SDS011;2417;52.482;13.432;2023-08-06T02:45:26;22.80;;;16.23;;
4806;SDS011;2417;52.482;13.432;2023-08-06T02:47:56;20.70;;;16.10;;
4806;SDS011;2417;52.482;13.432;2023-08-06T02:50:24;21.87;;;15.63;;
4806;SDS011;2417;52.482;13.432;2023-08-06T02:52:52;26.27;;;16.10;;
4806;SDS011;2417;52.482;13.432;2023-08-06T02:55:21;24.23;;;15.30;;
4806;SDS011;2417;52.482;13.432;2023-08-06T02:57:49;23.57;;;15.13;;
4806;SDS011;2417;52.482;13.432;2023-08-06T03:00:17;23.97;;;16.27;;
4806;SDS011;2417;52.482;13.432;2023-08-06T03:02:47;25.00;;;15.50;;
4806;SDS011;2417;52.482;13.432;2023-08-06T03:05:24;23.40;;;15.53;;
4806;SDS011;2417;52.482;13.432;2023-08-06T03:07:52;21.67;;;14.90;;
4806;SDS011;2417;52.482;13.432;2023-08-06T03:10:24;22.70;;;14.50;;
4806;SDS011;2417;52.482;13.432;2023-08-06T03:12:55;20.73;;;14.70;;
4806;SDS011;2417;52.482;13.432;2023-08-06T03:15:23;19.97;;;14.10;;
4806;SDS011;2417;52.482;13.432;2023-08-06T03:17:51;24.50;;;14.20;;
4806;SDS011;2417;52.482;13.432;2023-08-06T03:20:20;22.13;;;14.60;;
4806;SDS011;2417;52.482;13.432;2023-08-06T03:22:50;18.97;;;13.57;;
4806;SDS011;2417;52.482;13.432;2023-08-06T03:25:18;22.30;;;14.20;;
4806;SDS011;2417;52.482;13.432;2023-08-06T03:27:48;21.37;;;14.67;;
4806;SDS011;2417;52.482;13.432;2023-08-06T03:30:18;24.27;;;14.80;;
4806;SDS011;2417;52.482;13.432;2023-08-06T03:32:47;23.60;;;15.67;;
4806;SDS011;2417;52.482;13.432;2023-08-06T03:35:18;23.70;;;14.80;;
4806;SDS011;2417;52.482;13.432;2023-08-06T03:37:48;29.03;;;15.00;;
4806;SDS011;2417;52.482;13.432;2023-08-06T03:40:17;21.50;;;15.57;;
4806;SDS011;2417;52.482;13.432;2023-08-06T03:42:46;24.73;;;16.83;;
4806;SDS011;2417;52.482;13.432;2023-08-06T03:45:13;22.50;;;15.60;;
4806;SDS011;2417;52.482;13.432;2023-08-06T03:47:42;24.10;;;15.50;;
4806;SDS011;2417;52.482;13.432;2023-08-06T03:50:11;23.50;;;16.10;;
4806;SDS011;2417;52.482;13.432;2023-08-06T03:52:39;24.77;;;16.47;;
4806;SDS011;2417;52.482;13.432;2023-08-06T03:55:07;22.03;;;15.67;;
4806;SDS011;2417;52.482;13.432;2023-08-06T03:57:37;27.93;;;15.93;;
4806;SDS011;2417;52.482;13.432;2023-08-06T04:00:06;32.73;;;16.00;;
4806;SDS011;2417;52.482;13.432;2023-08-06T04:02:40;20.00;;;15.10;;
4806;SDS011;2417;52.482;13.432;2023-08-06T04:05:11;27.00;;;16.30;;
4806;SDS011;2417;52.482;13.432;2023-08-06T04:07:39;23.50;;;15.13;;
4806;SDS011;2417;52.482;13.432;2023-08-06T04:10:07;27.80;;;16.40;;
4806;SDS011;2417;52.482;13.432;2023-08-06T04:12:35;25.57;;;15.80;;
4806;SDS011;2417;52.482;13.432;2023-08-06T04:15:08;28.93;;;15.93;;
4806;SDS011;2417;52.482;13.432;2023-08-06T04:17:36;25.23;;;15.80;;
4806;SDS011;2417;52.482;13.432;2023-08-06T04:20:04;24.00;;;17.03;;
4806;SDS011;2417;52.482;13.432;2023-08-06T04:22:33;30.00;;;18.30;;
4806;SDS011;2417;52.482;13.432;2023-08-06T04:25:01;24.00;;;16.10;;
4806;SDS011;2417;52.482;13.432;2023-08-06T04:27:29;30.40;;;17.20;;
4806;SDS011;2417;52.482;13.432;2023-08-06T04:29:57;24.53;;;16.30;;
4806;SDS011;2417;52.482;13.432;2023-08-06T04:32:27;28.37;;;17.43;;
4806;SDS011;2417;52.482;13.432;2023-08-06T04:34:56;27.53;;;16.57;;
4806;SDS011;2417;52.482;13.432;2023-08-06T04:37:26;24.37;;;15.97;;
4806;SDS011;2417;52.482;13.432;2023-08-06T04:39:54;24.23;;;15.67;;
4806;SDS011;2417;52.482;13.432;2023-08-06T04:42:22;28.83;;;16.90;;
4806;SDS011;2417;52.482;13.432;2023-08-06T04:44:50;24.07;;;16.53;;
4806;SDS011;2417;52.482;13.432;2023-08-06T04:47:18;27.70;;;15.97;;
4806;SDS011;2417;52.482;13.432;2023-08-06T04:49:47;27.63;;;16.20;;
4806;SDS011;2417;52.482;13.432;2023-08-06T04:52:15;27.23;;;16.77;;
4806;SDS011;2417;52.482;13.432;2023-08-06T04:54:43;26.57;;;15.80;;
4806;SDS011;2417;52.482;13.432;2023-08-06T04:57:11;24.40;;;15.77;;
4806;SDS011;2417;52.482;13.432;2023-08-06T04:59:39;23.10;;;15.47;;
4806;SDS011;2417;52.482;13.432;2023-08-06T05:02:07;25.93;;;15.80;;
4806;SDS011;2417;52.482;13.432;2023-08-06T05:04:35;22.00;;;14.60;;
4806;SDS011;2417;52.482;13.432;2023-08-06T05:07:06;21.43;;;14.50;;
4806;SDS011;2417;52.482;13.432;2023-08-06T05:09:34;25.53;;;15.73;;
4806;SDS011;2417;52.482;13.432;2023-08-06T05:12:03;25.23;;;15.60;;
4806;SDS011;2417;52.482;13.432;2023-08-06T05:14:31;27.63;;;18.60;;
4806;SDS011;2417;52.482;13.432;2023-08-06T05:16:59;28.47;;;18.17;;
4806;SDS011;2417;52.482;13.432;2023-08-06T05:19:28;28.27;;;18.50;;
4806;SDS011;2417;52.482;13.432;2023-08-06T05:21:56;29.20;;;18.90;;
4806;SDS011;2417;52.482;13.432;2023-08-06T05:24:26;31.97;;;19.53;;
4806;SDS011;2417;52.482;13.432;2023-08-06T05:26:54;29.20;;;18.80;;
4806;SDS011;2417;52.482;13.432;2023-08-06T05:29:21;30.23;;;18.73;;
4806;SDS011;2417;52.482;13.432;2023-08-06T05:31:49;31.90;;;20.07;;
4806;SDS011;2417;52.482;13.432;2023-08-06T05:34:18;25.40;;;17.47;;
4806;SDS011;2417;52.482;13.432;2023-08-06T05:36:46;30.97;;;19.00;;
4806;SDS011;2417;52.482;13.432;2023-08-06T05:39:13;30.20;;;18.90;;
4806;SDS011;2417;52.482;13.432;2023-08-06T05:41:43;33.13;;;20.23;;
4806;SDS011;2417;52.482;13.432;2023-08-06T05:44:11;29.50;;;20.30;;
4806;SDS011;2417;52.482;13.432;2023-08-06T05:46:39;30.40;;;19.50;;
4806;SDS011;2417;52.482;13.432;2023-08-06T05:49:07;25.77;;;18.20;;
4806;SDS011;2417;52.482;13.432;2023-08-06T05:51:35;34.63;;;17.27;;
4806;SDS011;2417;52.482;13.432;2023-08-06T05:54:03;30.27;;;17.77;;
4806;SDS011;2417;52.482;13.432;2023-08-06T05:56:31;24.07;;;16.53;;
4806;SDS011;2417;52.482;13.432;2023-08-06T05:59:00;22.63;;;15.13;;
4806;SDS011;2417;52.482;13.432;2023-08-06T06:01:28;20.83;;;14.43;;
4806;SDS011;2417;52.482;13.432;2023-08-06T06:03:56;24.90;;;16.33;;
4806;SDS011;2417;52.482;13.432;2023-08-06T06:06:24;22.60;;;16.00;;
4806;SDS011;2417;52.482;13.432;2023-08-06T06:08:52;21.83;;;15.57;;
4806;SDS011;2417;52.482;13.432;2023-08-06T06:11:20;26.90;;;16.13;;
4806;SDS011;2417;52.482;13.432;2023-08-06T06:13:50;28.47;;;16.60;;
4806;SDS011;2417;52.482;13.432;2023-08-06T06:16:20;30.77;;;17.17;;
4806;SDS011;2417;52.482;13.432;2023-08-06T06:18:48;27.17;;;17.40;;
4806;SDS011;2417;52.482;13.432;2023-08-06T06:21:16;26.10;;;17.00;;
4806;SDS011;2417;52.482;13.432;2023-08-06T06:23:43;30.13;;;17.50;;
4806;SDS011;2417;52.482;13.432;2023-08-06T06:26:12;25.80;;;17.07;;
4806;SDS011;2417;52.482;13.432;2023-08-06T06:28:39;28.17;;;17.93;;
4806;SDS011;2417;52.482;13.432;2023-08-06T06:31:07;26.30;;;16.87;;
4806;SDS011;2417;52.482;13.432;2023-08-06T06:33:37;27.67;;;18.50;;
4806;SDS011;2417;52.482;13.432;2023-08-06T06:36:05;29.27;;;19.00;;
4806;SDS011;2417;52.482;13.432;2023-08-06T06:38:34;29.73;;;19.07;;
4806;SDS011;2417;52.482;13.432;2023-08-06T06:41:02;28.60;;;19.97;;
4806;SDS011;2417;52.482;13.432;2023-08-06T06:43:29;30.97;;;20.70;;
4806;SDS011;2417;52.482;13.432;2023-08-06T06:45:58;31.37;;;18.63;;
4806;SDS011;2417;52.482;13.432;2023-08-06T06:48:27;33.27;;;19.73;;
4806;SDS011;2417;52.482;13.432;2023-08-06T06:50:57;34.20;;;20.90;;
4806;SDS011;2417;52.482;13.432;2023-08-06T06:53:25;28.33;;;18.03;;
4806;SDS011;2417;52.482;13.432;2023-08-06T06:55:54;26.33;;;17.07;;
4806;SDS011;2417;52.482;13.432;2023-08-06T06:58:22;32.90;;;19.57;;
4806;SDS011;2417;52.482;13.432;2023-08-06T07:00:50;35.10;;;21.63;;
4806;SDS011;2417;52.482;13.432;2023-08-06T07:03:19;29.53;;;19.10;;
4806;SDS011;2417;52.482;13.432;2023-08-06T07:05:47;32.73;;;19.67;;
4806;SDS011;2417;52.482;13.432;2023-08-06T07:08:16;30.20;;;18.37;;
4806;SDS011;2417;52.482;13.432;2023-08-06T07:10:44;29.57;;;19.40;;
4806;SDS011;2417;52.482;13.432;2023-08-06T07:13:12;34.07;;;19.73;;
4806;SDS011;2417;52.482;13.432;2023-08-06T07:15:40;33.23;;;20.10;;
4806;SDS011;2417;52.482;13.432;2023-08-06T07:18:09;29.80;;;19.50;;
4806;SDS011;2417;52.482;13.432;2023-08-06T07:20:37;30.67;;;18.80;;
4806;SDS011;2417;52.482;13.432;2023-08-06T07:23:04;31.07;;;19.67;;
4806;SDS011;2417;52.482;13.432;2023-08-06T07:25:36;30.70;;;19.53;;
4806;SDS011;2417;52.482;13.432;2023-08-06T07:28:04;30.17;;;19.43;;
4806;SDS011;2417;52.482;13.432;2023-08-06T07:30:32;27.77;;;18.40;;
4806;SDS011;2417;52.482;13.432;2023-08-06T07:33:00;37.60;;;20.53;;
4806;SDS011;2417;52.482;13.432;2023-08-06T07:35:28;27.77;;;17.63;;
4806;SDS011;2417;52.482;13.432;2023-08-06T07:37:56;28.50;;;18.00;;
4806;SDS011;2417;52.482;13.432;2023-08-06T07:40:23;37.23;;;20.03;;
4806;SDS011;2417;52.482;13.432;2023-08-06T07:42:53;30.40;;;19.47;;
4806;SDS011;2417;52.482;13.432;2023-08-06T07:45:20;26.60;;;17.27;;
4806;SDS011;2417;52.482;13.432;2023-08-06T07:47:48;27.47;;;17.90;;
4806;SDS011;2417;52.482;13.432;2023-08-06T07:50:16;27.33;;;17.60;;
4806;SDS011;2417;52.482;13.432;2023-08-06T07:52:44;27.23;;;17.63;;
4806;SDS011;2417;52.482;13.432;2023-08-06T07:55:12;26.50;;;17.03;;
4806;SDS011;2417;52.482;13.432;2023-08-06T07:57:40;24.93;;;16.90;;
4806;SDS011;2417;52.482;13.432;2023-08-06T08:00:09;26.80;;;16.03;;
4806;SDS011;2417;52.482;13.432;2023-08-06T08:02:40;24.80;;;16.20;;
4806;SDS011;2417;52.482;13.432;2023-08-06T08:05:08;28.73;;;17.57;;
4806;SDS011;2417;52.482;13.432;2023-08-06T08:07:36;29.37;;;18.17;;
4806;SDS011;2417;52.482;13.432;2023-08-06T08:10:04;31.90;;;17.37;;
4806;SDS011;2417;52.482;13.432;2023-08-06T08:12:32;23.97;;;16.10;;
4806;SDS011;2417;52.482;13.432;2023-08-06T08:15:00;26.80;;;16.60;;
4806;SDS011;2417;52.482;13.432;2023-08-06T08:17:31;26.40;;;16.53;;
4806;SDS011;2417;52.482;13.432;2023-08-06T08:19:59;26.43;;;17.63;;
4806;SDS011;2417;52.482;13.432;2023-08-06T08:22:27;26.90;;;18.27;;
4806;SDS011;2417;52.482;13.432;2023-08-06T08:24:55;33.83;;;17.77;;
4806;SDS011;2417;52.482;13.432;2023-08-06T08:27:23;34.27;;;19.10;;
4806;SDS011;2417;52.482;13.432;2023-08-06T08:29:50;31.47;;;18.13;;
4806;SDS011;2417;52.482;13.432;2023-08-06T08:32:19;32.20;;;20.50;;
4806;SDS011;2417;52.482;13.432;2023-08-06T08:34:48;31.60;;;18.30;;
4806;SDS011;2417;52.482;13.432;2023-08-06T08:37:16;28.50;;;19.30;;
4806;SDS011;2417;52.482;13.432;2023-08-06T08:39:44;30.97;;;20.40;;
4806;SDS011;2417;52.482;13.432;2023-08-06T08:42:13;31.97;;;21.27;;
4806;SDS011;2417;52.482;13.432;2023-08-06T08:44:41;31.40;;;20.10;;
4806;SDS011;2417;52.482;13.432;2023-08-06T08:47:09;32.77;;;20.67;;
4806;SDS011;2417;52.482;13.432;2023-08-06T08:50:00;28.60;;;20.50;;
4806;SDS011;2417;52.482;13.432;2023-08-06T08:52:28;30.70;;;21.03;;
4806;SDS011;2417;52.482;13.432;2023-08-06T08:55:00;29.67;;;20.10;;
4806;SDS011;2417;52.482;13.432;2023-08-06T08:57:28;30.47;;;20.20;;
4806;SDS011;2417;52.482;13.432;2023-08-06T08:59:56;33.53;;;21.47;;
4806;SDS011;2417;52.482;13.432;2023-08-06T09:02:25;33.77;;;20.93;;
4806;SDS011;2417;52.482;13.432;2023-08-06T09:04:54;32.10;;;20.10;;
4806;SDS011;2417;52.482;13.432;2023-08-06T09:07:24;33.17;;;20.80;;
4806;SDS011;2417;52.482;13.432;2023-08-06T09:09:53;36.57;;;22.50;;
4806;SDS011;2417;52.482;13.432;2023-08-06T09:12:22;33.50;;;22.30;;
4806;SDS011;2417;52.482;13.432;2023-08-06T09:14:49;30.77;;;20.13;;
4806;SDS011;2417;52.482;13.432;2023-08-06T09:17:18;38.53;;;23.80;;
4806;SDS011;2417;52.482;13.432;2023-08-06T09:19:46;43.30;;;23.37;;
4806;SDS011;2417;52.482;13.432;2023-08-06T09:22:15;44.93;;;24.87;;
4806;SDS011;2417;52.482;13.432;2023-08-06T09:24:44;32.77;;;22.00;;
4806;SDS011;2417;52.482;13.432;2023-08-06T09:27:12;34.93;;;22.37;;
4806;SDS011;2417;52.482;13.432;2023-08-06T09:29:41;38.80;;;22.47;;
4806;SDS011;2417;52.482;13.432;2023-08-06T09:32:10;35.07;;;22.53;;
4806;SDS011;2417;52.482;13.432;2023-08-06T09:34:38;32.63;;;21.40;;
4806;SDS011;2417;52.482;13.432;2023-08-06T09:37:08;36.43;;;23.33;;
4806;SDS011;2417;52.482;13.432;2023-08-06T09:39:38;36.80;;;23.37;;
4806;SDS011;2417;52.482;13.432;2023-08-06T09:42:07;39.60;;;23.27;;
4806;SDS011;2417;52.482;13.432;2023-08-06T09:44:35;39.00;;;24.53;;
4806;SDS011;2417;52.482;13.432;2023-08-06T09:47:05;43.57;;;26.37;;
4806;SDS011;2417;52.482;13.432;2023-08-06T09:49:42;59.03;;;35.30;;
4806;SDS011;2417;52.482;13.432;2023-08-06T09:52:12;69.37;;;42.77;;
4806;SDS011;2417;52.482;13.432;2023-08-06T09:54:40;105.03;;;53.73;;
4806;SDS011;2417;52.482;13.432;2023-08-06T09:57:09;85.90;;;46.93;;
4806;SDS011;2417;52.482;13.432;2023-08-06T09:59:39;157.77;;;77.67;;
4806;SDS011;2417;52.482;13.432;2023-08-06T10:02:12;289.70;;;107.53;;
4806;SDS011;2417;52.482;13.432;2023-08-06T10:04:41;68.37;;;32.80;;
4806;SDS011;2417;52.482;13.432;2023-08-06T10:07:15;189.13;;;64.20;;
4806;SDS011;2417;52.482;13.432;2023-08-06T10:09:45;119.03;;;45.97;;
4806;SDS011;2417;52.482;13.432;2023-08-06T10:12:14;266.27;;;91.80;;
4806;SDS011;2417;52.482;13.432;2023-08-06T10:14:45;260.57;;;89.37;;
4806;SDS011;2417;52.482;13.432;2023-08-06T10:17:13;385.73;;;119.03;;
4806;SDS011;2417;52.482;13.432;2023-08-06T10:19:41;78.10;;;35.33;;
4806;SDS011;2417;52.482;13.432;2023-08-06T10:22:10;191.63;;;69.40;;
4806;SDS011;2417;52.482;13.432;2023-08-06T10:24:48;152.27;;;59.47;;
4806;SDS011;2417;52.482;13.432;2023-08-06T10:27:27;164.47;;;63.07;;
4806;SDS011;2417;52.482;13.432;2023-08-06T10:29:56;242.93;;;91.83;;
4806;SDS011;2417;52.482;13.432;2023-08-06T10:35:09;42.60;;;22.77;;
4806;SDS011;2417;52.482;13.432;2023-08-06T10:38:02;36.13;;;22.73;;
4806;SDS011;2417;52.482;13.432;2023-08-06T10:40:31;35.80;;;24.57;;
4806;SDS011;2417;52.482;13.432;2023-08-06T10:43:01;35.77;;;24.70;;
4806;SDS011;2417;52.482;13.432;2023-08-06T10:45:29;35.30;;;23.70;;
4806;SDS011;2417;52.482;13.432;2023-08-06T10:47:57;30.30;;;21.50;;
4806;SDS011;2417;52.482;13.432;2023-08-06T10:50:26;33.10;;;21.07;;
4806;SDS011;2417;52.482;13.432;2023-08-06T10:52:54;35.40;;;22.70;;
4806;SDS011;2417;52.482;13.432;2023-08-06T10:55:22;38.10;;;24.90;;
4806;SDS011;2417;52.482;13.432;2023-08-06T10:57:51;46.33;;;28.20;;
4806;SDS011;2417;52.482;13.432;2023-08-06T11:00:20;40.33;;;24.70;;
4806;SDS011;2417;52.482;13.432;2023-08-06T11:02:48;35.87;;;23.50;;
4806;SDS011;2417;52.482;13.432;2023-08-06T11:05:16;34.60;;;22.30;;
4806;SDS011;2417;52.482;13.432;2023-08-06T11:07:47;31.50;;;20.60;;
4806;SDS011;2417;52.482;13.432;2023-08-06T11:10:17;30.93;;;20.90;;
4806;SDS011;2417;52.482;13.432;2023-08-06T11:12:45;40.47;;;24.93;;
4806;SDS011;2417;52.482;13.432;2023-08-06T11:15:13;41.00;;;22.03;;
4806;SDS011;2417;52.482;13.432;2023-08-06T11:17:42;36.80;;;23.47;;
4806;SDS011;2417;52.482;13.432;2023-08-06T11:20:10;42.00;;;23.60;;
4806;SDS011;2417;52.482;13.432;2023-08-06T11:22:41;42.10;;;23.87;;
4806;SDS011;2417;52.482;13.432;2023-08-06T11:25:09;39.40;;;24.93;;
4806;SDS011;2417;52.482;13.432;2023-08-06T11:27:37;36.70;;;24.00;;
4806;SDS011;2417;52.482;13.432;2023-08-06T11:30:05;41.53;;;25.10;;
4806;SDS011;2417;52.482;13.432;2023-08-06T11:32:33;40.37;;;25.53;;
4806;SDS011;2417;52.482;13.432;2023-08-06T11:35:14;40.37;;;21.60;;
4806;SDS011;2417;52.482;13.432;2023-08-06T11:38:03;40.20;;;22.50;;
4806;SDS011;2417;52.482;13.432;2023-08-06T11:40:31;28.30;;;19.03;;
4806;SDS011;2417;52.482;13.432;2023-08-06T11:42:59;26.97;;;18.70;;
4806;SDS011;2417;52.482;13.432;2023-08-06T11:45:27;31.47;;;21.23;;
4806;SDS011;2417;52.482;13.432;2023-08-06T11:47:55;29.33;;;20.57;;
4806;SDS011;2417;52.482;13.432;2023-08-06T11:50:24;30.00;;;20.40;;
4806;SDS011;2417;52.482;13.432;2023-08-06T11:52:53;33.50;;;20.40;;
4806;SDS011;2417;52.482;13.432;2023-08-06T11:55:22;31.30;;;20.37;;
4806;SDS011;2417;52.482;13.432;2023-08-06T11:57:51;29.73;;;19.67;;
4806;SDS011;2417;52.482;13.432;2023-08-06T12:00:18;30.63;;;20.93;;
4806;SDS011;2417;52.482;13.432;2023-08-06T12:02:48;31.63;;;19.80;;
4806;SDS011;2417;52.482;13.432;2023-08-06T12:05:19;32.83;;;20.47;;
4806;SDS011;2417;52.482;13.432;2023-08-06T12:07:51;35.07;;;22.57;;
4806;SDS011;2417;52.482;13.432;2023-08-06T12:10:20;30.77;;;19.90;;
4806;SDS011;2417;52.482;13.432;2023-08-06T12:12:48;31.47;;;20.90;;
4806;SDS011;2417;52.482;13.432;2023-08-06T12:15:16;30.10;;;19.67;;
4806;SDS011;2417;52.482;13.432;2023-08-06T12:17:44;29.40;;;20.30;;
4806;SDS011;2417;52.482;13.432;2023-08-06T12:20:13;28.87;;;20.30;;
4806;SDS011;2417;52.482;13.432;2023-08-06T12:22:40;33.43;;;22.30;;
4806;SDS011;2417;52.482;13.432;2023-08-06T12:25:11;36.13;;;22.37;;
4806;SDS011;2417;52.482;13.432;2023-08-06T12:27:40;34.50;;;22.10;;
4806;SDS011;2417;52.482;13.432;2023-08-06T12:30:08;33.60;;;21.63;;
4806;SDS011;2417;52.482;13.432;2023-08-06T12:32:36;33.50;;;22.47;;
4806;SDS011;2417;52.482;13.432;2023-08-06T12:35:05;38.80;;;23.17;;
4806;SDS011;2417;52.482;13.432;2023-08-06T12:37:34;34.07;;;22.03;;
4806;SDS011;2417;52.482;13.432;2023-08-06T12:40:02;36.33;;;23.70;;
4806;SDS011;2417;52.482;13.432;2023-08-06T12:42:52;36.70;;;24.07;;
4806;SDS011;2417;52.482;13.432;2023-08-06T12:45:20;42.13;;;24.13;;
4806;SDS011;2417;52.482;13.432;2023-08-06T12:47:48;34.93;;;23.37;;
4806;SDS011;2417;52.482;13.432;2023-08-06T12:50:16;45.80;;;26.40;;
4806;SDS011;2417;52.482;13.432;2023-08-06T12:52:45;38.47;;;24.10;;
4806;SDS011;2417;52.482;13.432;2023-08-06T12:55:13;41.33;;;26.13;;
4806;SDS011;2417;52.482;13.432;2023-08-06T12:57:41;39.33;;;24.47;;
4806;SDS011;2417;52.482;13.432;2023-08-06T13:00:25;38.47;;;25.47;;
4806;SDS011;2417;52.482;13.432;2023-08-06T13:02:53;46.70;;;25.80;;
4806;SDS011;2417;52.482;13.432;2023-08-06T13:05:21;38.20;;;23.63;;
4806;SDS011;2417;52.482;13.432;2023-08-06T13:07:49;39.27;;;22.33;;
4806;SDS011;2417;52.482;13.432;2023-08-06T13:10:17;32.73;;;21.87;;
4806;SDS011;2417;52.482;13.432;2023-08-06T13:12:46;29.70;;;20.10;;
4806;SDS011;2417;52.482;13.432;2023-08-06T13:15:14;32.00;;;20.50;;
4806;SDS011;2417;52.482;13.432;2023-08-06T13:17:46;37.23;;;22.20;;
4806;SDS011;2417;52.482;13.432;2023-08-06T13:20:14;37.47;;;22.60;;
4806;SDS011;2417;52.482;13.432;2023-08-06T13:22:45;35.90;;;22.23;;
4806;SDS011;2417;52.482;13.432;2023-08-06T13:25:16;31.30;;;20.73;;
4806;SDS011;2417;52.482;13.432;2023-08-06T13:27:44;36.00;;;20.70;;
4806;SDS011;2417;52.482;13.432;2023-08-06T13:30:14;32.00;;;22.23;;
4806;SDS011;2417;52.482;13.432;2023-08-06T13:32:43;44.30;;;26.07;;
4806;SDS011;2417;52.482;13.432;2023-08-06T13:35:12;42.23;;;25.83;;
4806;SDS011;2417;52.482;13.432;2023-08-06T13:37:40;44.73;;;24.20;;
4806;SDS011;2417;52.482;13.432;2023-08-06T13:40:08;40.97;;;25.77;;
4806;SDS011;2417;52.482;13.432;2023-08-06T13:42:36;36.93;;;21.97;;
4806;SDS011;2417;52.482;13.432;2023-08-06T13:45:04;33.57;;;22.17;;
4806;SDS011;2417;52.482;13.432;2023-08-06T13:47:32;32.10;;;20.90;;
4806;SDS011;2417;52.482;13.432;2023-08-06T13:50:01;35.30;;;19.80;;
4806;SDS011;2417;52.482;13.432;2023-08-06T13:52:31;35.90;;;21.10;;
4806;SDS011;2417;52.482;13.432;2023-08-06T13:54:59;31.80;;;20.20;;
4806;SDS011;2417;52.482;13.432;2023-08-06T13:57:27;41.50;;;25.03;;
4806;SDS011;2417;52.482;13.432;2023-08-06T13:59:55;41.47;;;23.17;;
4806;SDS011;2417;52.482;13.432;2023-08-06T14:02:23;34.50;;;20.97;;
4806;SDS011;2417;52.482;13.432;2023-08-06T14:04:52;37.83;;;21.10;;
4806;SDS011;2417;52.482;13.432;2023-08-06T14:07:20;47.13;;;26.63;;
4806;SDS011;2417;52.482;13.432;2023-08-06T14:09:49;39.13;;;22.70;;
4806;SDS011;2417;52.482;13.432;2023-08-06T14:12:17;34.70;;;20.67;;
4806;SDS011;2417;52.482;13.432;2023-08-06T14:14:45;45.20;;;25.00;;
4806;SDS011;2417;52.482;13.432;2023-08-06T14:17:13;43.23;;;23.00;;
4806;SDS011;2417;52.482;13.432;2023-08-06T14:19:42;43.10;;;24.43;;
4806;SDS011;2417;52.482;13.432;2023-08-06T14:22:10;43.07;;;23.40;;
4806;SDS011;2417;52.482;13.432;2023-08-06T14:24:39;43.60;;;23.87;;
4806;SDS011;2417;52.482;13.432;2023-08-06T14:27:08;43.43;;;26.53;;
4806;SDS011;2417;52.482;13.432;2023-08-06T14:29:36;43.77;;;25.03;;
4806;SDS011;2417;52.482;13.432;2023-08-06T14:32:04;43.17;;;23.07;;
4806;SDS011;2417;52.482;13.432;2023-08-06T14:34:32;40.83;;;22.67;;
4806;SDS011;2417;52.482;13.432;2023-08-06T14:37:00;48.87;;;23.10;;
4806;SDS011;2417;52.482;13.432;2023-08-06T14:39:28;34.07;;;19.90;;
4806;SDS011;2417;52.482;13.432;2023-08-06T14:41:56;49.73;;;22.43;;
4806;SDS011;2417;52.482;13.432;2023-08-06T14:44:25;31.40;;;19.17;;
4806;SDS011;2417;52.482;13.432;2023-08-06T14:46:53;47.80;;;19.20;;